Highlands, Washington
Current Conditions -  °F | °C
As of 8:07 AM on Friday 31 Oct 2014 (Local Time) from KRNT Reporting Station
Moderate Rain Moderate Rain  
Wind Chill: 52°   Ceiling: 1200
Heat Index: 52°   Visibility: 2mi
Dew Point: 51°   Wind: 5mph
Humidity: 97%   Direction: 190°S
Pressure: 29.71"   Gusts: NA
Location:  47.5152°N, 122.184°W
Report Text: KRNT 311507Z 19004KT 2SM RA BR SCT006 BKN012 OVC019 11/11 A2971 RMK AO2 P0005 T01110106
Loading
Personal Weather Stations






























Interactive Weather Map
Tropical Storm Tracking
New forecast layout! Learn more

10-Day Weather Forecast

Advertisements
Track Severe Weather on mobile